Time;durP1;ratioP1;P1;durP2;ratioP2;P2;SDS_P1;SDS_P2;PMS_P1;PMS_P2;Temp;Humidity;BMP_temperature;BMP_pressure;BME280_temperature;BME280_humidity;BME280_pressure;Samples;Min_cycle;Max_cycle;Signal;HPM_P1;HPM_P2
2021/07/16 00:01:44;;;;;;;42.93;29.30;;;;;;;;;;5137457;28;20738;-53
2021/07/16 00:04:11;;;;;;;34.67;27.33;;;;;;;;;;5138039;28;20452;-55
2021/07/16 00:06:45;;;;;;;32.73;26.53;;;;;;;;;;5137732;28;20486;-54
2021/07/16 00:09:14;;;;;;;32.93;26.70;;;;;;;;;;5137833;28;20454;-54
2021/07/16 00:11:43;;;;;;;40.30;27.80;;;;;;;;;;5138997;28;20437;-52
2021/07/16 00:14:10;;;;;;;45.67;29.20;;;;;;;;;;5137851;28;20521;-58
2021/07/16 00:16:38;;;;;;;39.33;27.90;;;;;;;;;;5125421;28;20447;-53
2021/07/16 00:19:05;;;;;;;37.20;27.33;;;;;;;;;;5108666;28;20460;-52
2021/07/16 00:21:38;;;;;;;51.07;29.20;;;;;;;;;;5097186;28;20463;-51
2021/07/16 00:24:08;;;;;;;34.17;29.17;;;;;;;;;;5098134;28;20467;-53
2021/07/16 00:26:35;;;;;;;40.47;29.83;;;;;;;;;;5101216;28;20463;-55
2021/07/16 00:29:14;;;;;;;34.23;30.07;;;;;;;;;;5117304;28;20630;-51
2021/07/16 00:31:41;;;;;;;39.43;29.00;;;;;;;;;;5117118;28;20509;-51
2021/07/16 00:34:09;;;;;;;40.63;28.07;;;;;;;;;;5106427;28;20495;-51
2021/07/16 00:37:07;;;;;;;40.30;30.77;;;;;;;;;;5097011;28;20486;-53
2021/07/16 00:39:37;;;;;;;38.10;29.10;;;;;;;;;;5113540;28;20443;-56
2021/07/16 00:42:05;;;;;;;40.70;28.33;;;;;;;;;;5117741;28;20473;-54
2021/07/16 00:44:37;;;;;;;41.60;28.90;;;;;;;;;;5108435;28;20464;-54
2021/07/16 00:47:07;;;;;;;35.23;26.40;;;;;;;;;;5115244;28;20451;-57
2021/07/16 00:49:37;;;;;;;33.70;24.43;;;;;;;;;;5099676;28;20442;-57
2021/07/16 00:52:04;;;;;;;30.50;24.50;;;;;;;;;;5097313;28;20451;-51
2021/07/16 00:54:32;;;;;;;36.00;26.93;;;;;;;;;;5130393;28;20516;-51
2021/07/16 00:57:11;;;;;;;28.63;22.27;;;;;;;;;;5137854;28;20462;-54
2021/07/16 00:59:39;;;;;;;31.40;22.90;;;;;;;;;;5122877;28;20513;-52
2021/07/16 01:02:07;;;;;;;29.30;21.33;;;;;;;;;;5112452;28;20433;-55
2021/07/16 01:04:37;;;;;;;29.10;19.00;;;;;;;;;;5101840;28;20454;-57
2021/07/16 01:07:05;;;;;;;26.80;17.63;;;;;;;;;;5099620;28;20866;-54
2021/07/16 01:09:32;;;;;;;25.33;18.37;;;;;;;;;;5096867;28;20456;-53
2021/07/16 01:12:11;;;;;;;23.40;17.97;;;;;;;;;;5096516;28;20460;-54
2021/07/16 01:14:38;;;;;;;24.30;16.93;;;;;;;;;;5114260;28;20646;-56
2021/07/16 01:17:05;;;;;;;23.90;19.00;;;;;;;;;;5117109;28;20428;-57
2021/07/16 01:19:50;;;;;;;30.03;17.60;;;;;;;;;;5110907;28;20512;-55
2021/07/16 01:22:18;;;;;;;24.90;17.07;;;;;;;;;;5097147;28;20456;-53
2021/07/16 01:24:48;;;;;;;28.07;16.80;;;;;;;;;;5096015;28;20444;-55
2021/07/16 01:27:15;;;;;;;24.63;18.03;;;;;;;;;;5097213;28;20472;-53
2021/07/16 01:29:44;;;;;;;31.07;17.33;;;;;;;;;;5096066;28;20486;-56
2021/07/16 01:32:11;;;;;;;26.40;15.90;;;;;;;;;;5099877;28;20515;-54
2021/07/16 01:34:53;;;;;;;28.00;18.40;;;;;;;;;;5106533;28;20480;-51
2021/07/16 01:37:22;;;;;;;31.87;17.50;;;;;;;;;;5096447;28;20460;-54
2021/07/16 01:39:51;;;;;;;34.40;18.27;;;;;;;;;;5095962;28;20444;-54
2021/07/16 01:42:25;;;;;;;27.93;17.83;;;;;;;;;;5102454;28;20479;-56
2021/07/16 01:44:53;;;;;;;31.57;18.30;;;;;;;;;;5114210;28;20471;-55
2021/07/16 01:47:20;;;;;;;35.87;20.27;;;;;;;;;;5116902;28;20459;-57
2021/07/16 01:49:55;;;;;;;30.87;18.30;;;;;;;;;;5115941;28;20465;-55
2021/07/16 01:52:22;;;;;;;26.40;18.03;;;;;;;;;;5098921;28;20458;-55
2021/07/16 01:54:54;;;;;;;34.33;19.20;;;;;;;;;;5117025;28;20459;-55
2021/07/16 01:57:35;;;;;;;30.40;19.00;;;;;;;;;;5116684;28;20482;-52
2021/07/16 02:00:03;;;;;;;29.93;18.73;;;;;;;;;;5097621;28;20754;-54
2021/07/16 02:02:30;;;;;;;32.70;18.90;;;;;;;;;;5095587;28;20491;-51
2021/07/16 02:05:09;;;;;;;26.73;17.67;;;;;;;;;;5095137;28;20455;-55
2021/07/16 02:07:36;;;;;;;31.23;18.90;;;;;;;;;;5095579;28;20474;-51
2021/07/16 02:10:05;;;;;;;32.47;21.10;;;;;;;;;;5106415;28;20435;-55
2021/07/16 02:12:39;;;;;;;31.33;18.40;;;;;;;;;;5116226;28;20446;-56
2021/07/16 02:15:11;;;;;;;25.60;18.37;;;;;;;;;;5104007;28;20452;-52
2021/07/16 02:17:38;;;;;;;29.97;18.33;;;;;;;;;;5095468;28;20535;-56
2021/07/16 02:20:06;;;;;;;29.00;17.70;;;;;;;;;;5095777;28;20468;-53
2021/07/16 02:22:35;;;;;;;23.33;16.13;;;;;;;;;;5115246;28;20463;-51
2021/07/16 02:25:07;;;;;;;26.40;16.27;;;;;;;;;;5108775;28;20448;-53
2021/07/16 02:27:34;;;;;;;16.83;14.87;;;;;;;;;;5094900;28;20486;-54
2021/07/16 02:30:02;;;;;;;43.13;16.47;;;;;;;;;;5112706;28;20481;-54
2021/07/16 02:32:30;;;;;;;24.90;14.40;;;;;;;;;;5096326;28;20460;-53
2021/07/16 02:34:58;;;;;;;20.40;14.50;;;;;;;;;;5124803;28;20512;-54
2021/07/16 02:37:25;;;;;;;21.87;14.50;;;;;;;;;;5130389;28;20474;-50
2021/07/16 02:40:12;;;;;;;21.50;13.63;;;;;;;;;;5115739;28;20432;-53
2021/07/16 02:42:41;;;;;;;20.73;12.57;;;;;;;;;;5116187;28;20459;-52
2021/07/16 02:45:10;;;;;;;22.40;11.47;;;;;;;;;;5122695;28;20463;-54
2021/07/16 02:47:53;;;;;;;21.77;12.80;;;;;;;;;;5129315;28;20450;-54
2021/07/16 02:50:23;;;;;;;24.00;12.37;;;;;;;;;;5136022;28;20454;-52
2021/07/16 02:52:51;;;;;;;19.53;11.87;;;;;;;;;;5136211;28;20450;-55
2021/07/16 02:55:19;;;;;;;16.77;11.63;;;;;;;;;;5120071;28;20454;-53
2021/07/16 02:57:51;;;;;;;15.67;10.97;;;;;;;;;;5115615;28;20474;-55
2021/07/16 03:00:30;;;;;;;19.03;10.57;;;;;;;;;;5116171;28;20467;-56
2021/07/16 03:03:22;;;;;;;22.13;10.60;;;;;;;;;;5115791;28;20443;-54
2021/07/16 03:05:50;;;;;;;24.03;11.80;;;;;;;;;;5122393;28;20529;-55
2021/07/16 03:08:18;;;;;;;23.03;11.10;;;;;;;;;;5116245;28;20547;-55
2021/07/16 03:10:52;;;;;;;20.13;10.57;;;;;;;;;;5124530;28;20452;-54
2021/07/16 03:13:22;;;;;;;17.83;10.83;;;;;;;;;;5130072;28;20470;-55
2021/07/16 03:15:49;;;;;;;15.73;10.73;;;;;;;;;;5133073;28;20454;-52
2021/07/16 03:18:20;;;;;;;23.53;11.93;;;;;;;;;;5123114;28;20494;-55
2021/07/16 03:20:52;;;;;;;20.73;12.10;;;;;;;;;;5115784;28;20431;-51
2021/07/16 03:23:20;;;;;;;15.43;11.70;;;;;;;;;;5116834;28;20518;-56
2021/07/16 03:25:48;;;;;;;19.77;12.17;;;;;;;;;;5136002;28;20465;-54
2021/07/16 03:28:15;;;;;;;18.80;11.90;;;;;;;;;;5135721;28;20418;-54
2021/07/16 03:30:56;;;;;;;17.80;12.47;;;;;;;;;;5119059;28;20463;-54
2021/07/16 03:33:23;;;;;;;21.80;13.83;;;;;;;;;;5113413;28;20455;-53
2021/07/16 03:35:51;;;;;;;16.87;14.03;;;;;;;;;;5095950;28;20480;-54
2021/07/16 03:38:33;;;;;;;25.47;16.13;;;;;;;;;;5094781;28;20452;-54
2021/07/16 03:41:01;;;;;;;26.83;15.20;;;;;;;;;;5111095;28;20474;-51
2021/07/16 03:43:28;;;;;;;26.67;16.23;;;;;;;;;;5114917;28;20455;-54
2021/07/16 03:46:17;;;;;;;23.27;17.13;;;;;;;;;;5114739;28;20463;-55
2021/07/16 03:48:45;;;;;;;22.27;17.03;;;;;;;;;;5113520;28;20686;-56
2021/07/16 03:51:13;;;;;;;23.90;16.37;;;;;;;;;;5107125;28;20464;-56
2021/07/16 03:53:46;;;;;;;22.90;15.50;;;;;;;;;;5096383;28;20858;-53
2021/07/16 03:56:13;;;;;;;31.83;16.73;;;;;;;;;;5115368;28;20494;-55
2021/07/16 03:58:41;;;;;;;30.70;14.70;;;;;;;;;;5099542;28;20467;-55
2021/07/16 04:01:09;;;;;;;17.57;13.60;;;;;;;;;;5094848;28;20470;-53
2021/07/16 04:03:37;;;;;;;24.67;15.33;;;;;;;;;;5105164;28;20516;-56
2021/07/16 04:06:06;;;;;;;21.80;14.20;;;;;;;;;;5114941;28;20415;-52
2021/07/16 04:08:37;;;;;;;27.83;13.20;;;;;;;;;;5114219;28;20431;-51
2021/07/16 04:11:04;;;;;;;28.07;15.50;;;;;;;;;;5114685;28;20573;-50
2021/07/16 04:13:31;;;;;;;21.30;14.50;;;;;;;;;;5116837;28;20485;-56
2021/07/16 04:15:59;;;;;;;20.70;15.27;;;;;;;;;;5118297;28;20505;-52
2021/07/16 04:18:26;;;;;;;25.47;14.00;;;;;;;;;;5106266;28;20523;-56
2021/07/16 04:20:54;;;;;;;25.80;15.23;;;;;;;;;;5106304;28;20436;-55
2021/07/16 04:23:27;;;;;;;18.93;15.07;;;;;;;;;;5085663;28;20456;-55
2021/07/16 04:25:57;;;;;;;25.13;14.87;;;;;;;;;;5106062;28;20456;-55
2021/07/16 04:28:33;;;;;;;22.43;14.80;;;;;;;;;;5118225;28;20455;-55
2021/07/16 04:31:21;;;;;;;21.23;13.00;;;;;;;;;;5106531;28;20460;-55
2021/07/16 04:33:49;;;;;;;21.40;14.20;;;;;;;;;;5116389;28;20494;-56
2021/07/16 04:36:18;;;;;;;28.10;15.30;;;;;;;;;;5118256;28;20451;-55
2021/07/16 04:41:51;;;;;;;25.00;16.00;;;;;;;;;;5135832;28;20468;-51
2021/07/16 04:44:20;;;;;;;29.30;16.10;;;;;;;;;;5138565;28;20466;-55
2021/07/16 04:46:48;;;;;;;23.47;17.10;;;;;;;;;;5138812;28;20552;-54
2021/07/16 04:49:31;;;;;;;28.67;16.80;;;;;;;;;;5138982;28;20458;-55
2021/07/16 04:52:08;;;;;;;30.17;17.07;;;;;;;;;;5135545;28;20439;-52
2021/07/16 04:54:35;;;;;;;26.27;17.00;;;;;;;;;;5117803;28;20466;-57
2021/07/16 04:57:08;;;;;;;27.57;16.93;;;;;;;;;;5117811;28;20490;-56
2021/07/16 04:59:55;;;;;;;32.73;18.60;;;;;;;;;;5118010;28;20475;-54
2021/07/16 05:02:23;;;;;;;24.37;17.93;;;;;;;;;;5115962;28;20487;-55
2021/07/16 05:04:50;;;;;;;34.33;16.37;;;;;;;;;;5117457;28;20455;-56
2021/07/16 05:07:24;;;;;;;28.80;18.10;;;;;;;;;;5117645;28;20463;-52
2021/07/16 05:09:51;;;;;;;28.73;18.97;;;;;;;;;;5116321;28;20514;-54
2021/07/16 05:12:22;;;;;;;27.33;17.40;;;;;;;;;;5117797;28;20486;-52
2021/07/16 05:14:49;;;;;;;26.67;16.47;;;;;;;;;;5117220;28;20491;-56
2021/07/16 05:17:17;;;;;;;22.97;15.73;;;;;;;;;;5117591;28;20416;-55
2021/07/16 05:22:55;;;;;;;22.23;15.30;;;;;;;;;;5096930;28;20477;-52
2021/07/16 05:25:23;;;;;;;22.90;16.20;;;;;;;;;;5112175;28;20476;-56
2021/07/16 05:28:20;;;;;;;27.17;16.23;;;;;;;;;;5107142;28;20447;-56
2021/07/16 05:30:50;;;;;;;21.30;15.40;;;;;;;;;;5111196;28;20456;-52
2021/07/16 05:33:17;;;;;;;26.20;16.73;;;;;;;;;;5104995;28;20460;-57
2021/07/16 05:35:57;;;;;;;26.47;15.40;;;;;;;;;;5105810;28;20509;-56
2021/07/16 05:38:25;;;;;;;23.70;16.90;;;;;;;;;;5114871;28;20501;-58
2021/07/16 05:40:53;;;;;;;24.43;16.70;;;;;;;;;;5099275;28;20523;-57
2021/07/16 05:43:43;;;;;;;25.60;14.60;;;;;;;;;;5099088;28;20467;-55
2021/07/16 05:46:12;;;;;;;22.53;15.37;;;;;;;;;;5096120;28;20444;-57
2021/07/16 05:48:45;;;;;;;24.77;17.00;;;;;;;;;;5105793;28;20474;-56
2021/07/16 05:51:25;;;;;;;25.63;15.47;;;;;;;;;;5110354;28;20562;-54
2021/07/16 05:53:52;;;;;;;27.20;16.53;;;;;;;;;;5113699;28;20700;-55
2021/07/16 05:56:30;;;;;;;36.87;15.73;;;;;;;;;;5095243;28;20444;-57
2021/07/16 05:59:13;;;;;;;22.73;14.60;;;;;;;;;;5101646;28;20459;-55
2021/07/16 06:01:42;;;;;;;23.73;15.70;;;;;;;;;;5100314;28;20491;-54
2021/07/16 06:04:12;;;;;;;31.30;17.23;;;;;;;;;;5086792;28;20532;-56
2021/07/16 06:06:41;;;;;;;19.53;15.20;;;;;;;;;;5085782;28;20510;-56
2021/07/16 06:09:11;;;;;;;22.53;14.57;;;;;;;;;;5094844;28;20458;-54
2021/07/16 06:11:39;;;;;;;28.70;15.03;;;;;;;;;;5080088;28;20464;-54
2021/07/16 06:14:25;;;;;;;24.40;15.70;;;;;;;;;;5094779;28;20459;-55
2021/07/16 06:17:04;;;;;;;19.47;12.83;;;;;;;;;;5080027;28;20475;-56
2021/07/16 06:19:35;;;;;;;22.90;14.23;;;;;;;;;;5072950;28;20453;-56
2021/07/16 06:22:08;;;;;;;25.63;14.60;;;;;;;;;;5087332;28;20463;-54
2021/07/16 06:24:35;;;;;;;29.00;13.87;;;;;;;;;;5079804;28;20457;-49
2021/07/16 06:27:05;;;;;;;27.23;14.73;;;;;;;;;;5080294;28;20453;-54
2021/07/16 06:29:40;;;;;;;20.97;14.70;;;;;;;;;;5083282;28;20485;-55
2021/07/16 06:32:09;;;;;;;28.10;14.00;;;;;;;;;;5079126;28;20448;-56
2021/07/16 06:34:42;;;;;;;22.40;13.73;;;;;;;;;;5073813;28;20560;-53
2021/07/16 06:37:09;;;;;;;32.47;14.20;;;;;;;;;;5073696;28;20476;-57
2021/07/16 06:40:04;;;;;;;23.43;13.73;;;;;;;;;;5094100;28;20462;-57
2021/07/16 06:42:37;;;;;;;23.87;14.93;;;;;;;;;;5073337;28;20519;-54
2021/07/16 06:45:06;;;;;;;22.80;16.13;;;;;;;;;;5085048;28;20444;-57
2021/07/16 06:56:21;;;;;;;20.10;13.00;;;;;;;;;;5094819;28;20546;-57
2021/07/16 06:58:51;;;;;;;26.93;13.30;;;;;;;;;;5115601;28;20436;-57
2021/07/16 07:01:22;;;;;;;25.23;15.87;;;;;;;;;;5097220;28;20713;-56
2021/07/16 07:06:44;;;;;;;23.90;11.93;;;;;;;;;;5101287;28;20446;-56
2021/07/16 07:09:15;;;;;;;17.20;12.87;;;;;;;;;;5102692;28;20494;-58
2021/07/16 07:11:42;;;;;;;21.73;13.97;;;;;;;;;;5112691;28;20467;-52
2021/07/16 07:14:10;;;;;;;27.80;14.03;;;;;;;;;;5104034;28;20692;-57
2021/07/16 07:16:37;;;;;;;21.43;14.10;;;;;;;;;;5093421;28;20473;-54
2021/07/16 07:19:07;;;;;;;27.53;13.33;;;;;;;;;;5092456;28;20472;-53
2021/07/16 07:21:41;;;;;;;31.33;13.40;;;;;;;;;;5095533;28;20471;-56
2021/07/16 07:24:31;;;;;;;30.50;15.20;;;;;;;;;;5102662;28;20463;-54
2021/07/16 07:27:03;;;;;;;22.10;13.27;;;;;;;;;;5112254;28;20473;-57
2021/07/16 07:29:33;;;;;;;24.90;13.70;;;;;;;;;;5107476;28;20455;-57
2021/07/16 07:32:00;;;;;;;22.00;13.80;;;;;;;;;;5112640;28;20451;-57
2021/07/16 07:34:28;;;;;;;31.50;14.60;;;;;;;;;;5109409;28;20432;-56
2021/07/16 07:37:04;;;;;;;30.10;15.50;;;;;;;;;;5092720;28;20565;-56
2021/07/16 07:39:31;;;;;;;31.10;15.70;;;;;;;;;;5110017;28;20459;-57
2021/07/16 07:42:00;;;;;;;23.00;15.17;;;;;;;;;;5092837;28;20512;-54
2021/07/16 07:44:29;;;;;;;25.63;15.30;;;;;;;;;;5093669;28;20464;-54
2021/07/16 07:46:57;;;;;;;20.83;14.57;;;;;;;;;;5093178;28;20478;-52
2021/07/16 07:49:28;;;;;;;42.70;18.70;;;;;;;;;;5114152;28;20538;-57
2021/07/16 07:51:58;;;;;;;24.90;13.50;;;;;;;;;;5099118;28;20458;-52
2021/07/16 07:54:27;;;;;;;22.47;14.57;;;;;;;;;;5099307;28;20456;-55
2021/07/16 07:56:55;;;;;;;27.17;12.10;;;;;;;;;;5096181;28;20447;-54
2021/07/16 07:59:25;;;;;;;22.80;12.90;;;;;;;;;;5114351;28;20442;-56
2021/07/16 08:01:52;;;;;;;32.67;12.97;;;;;;;;;;5116644;28;20459;-54
2021/07/16 08:04:19;;;;;;;16.70;12.20;;;;;;;;;;5116875;28;20423;-56
2021/07/16 08:07:07;;;;;;;27.33;13.20;;;;;;;;;;5105319;28;20432;-57
2021/07/16 08:09:35;;;;;;;22.13;10.40;;;;;;;;;;5096458;28;20432;-55
2021/07/16 08:12:04;;;;;;;16.77;10.30;;;;;;;;;;5101029;28;20529;-55
2021/07/16 08:14:34;;;;;;;17.40;9.90;;;;;;;;;;5116026;28;20481;-55
2021/07/16 08:17:02;;;;;;;15.83;9.20;;;;;;;;;;5116657;28;20463;-54
2021/07/16 08:19:29;;;;;;;13.83;10.40;;;;;;;;;;5115803;28;20450;-56
2021/07/16 08:21:59;;;;;;;19.67;10.63;;;;;;;;;;5115403;28;20427;-59
2021/07/16 08:24:30;;;;;;;12.30;8.83;;;;;;;;;;5116739;28;20493;-57
2021/07/16 08:26:58;;;;;;;20.07;9.47;;;;;;;;;;5116984;28;20455;-54
2021/07/16 08:29:31;;;;;;;11.67;9.80;;;;;;;;;;5116127;28;20443;-57
2021/07/16 08:32:00;;;;;;;15.90;9.40;;;;;;;;;;5113464;28;20559;-57
2021/07/16 08:34:27;;;;;;;16.47;10.57;;;;;;;;;;5115404;28;20462;-55
2021/07/16 08:37:10;;;;;;;19.20;10.70;;;;;;;;;;5115334;28;20483;-57
2021/07/16 08:39:40;;;;;;;18.33;10.90;;;;;;;;;;5112999;28;20700;-59
2021/07/16 08:42:10;;;;;;;16.90;10.30;;;;;;;;;;5098184;28;20464;-55
2021/07/16 08:44:44;;;;;;;27.80;11.40;;;;;;;;;;5109590;28;20516;-57
2021/07/16 08:47:31;;;;;;;17.13;10.30;;;;;;;;;;5106080;28;20475;-55
2021/07/16 08:50:07;;;;;;;15.40;10.30;;;;;;;;;;5113352;28;20485;-55
2021/07/16 08:52:34;;;;;;;17.13;8.73;;;;;;;;;;5116930;28;20427;-58
2021/07/16 08:55:02;;;;;;;15.40;10.03;;;;;;;;;;5108310;28;20491;-56
2021/07/16 08:57:36;;;;;;;14.50;10.10;;;;;;;;;;5115370;28;20470;-60
2021/07/16 09:00:04;;;;;;;11.30;8.23;;;;;;;;;;5114201;28;20477;-60
2021/07/16 09:02:35;;;;;;;15.23;8.43;;;;;;;;;;5107525;28;20449;-60
2021/07/16 09:05:07;;;;;;;14.07;8.47;;;;;;;;;;5082720;28;20440;-58
2021/07/16 09:07:42;;;;;;;21.40;8.60;;;;;;;;;;5094937;28;20436;-58
2021/07/16 09:10:12;;;;;;;11.30;8.77;;;;;;;;;;5093959;28;20514;-57
2021/07/16 09:12:39;;;;;;;10.67;8.30;;;;;;;;;;5094676;28;20542;-58
2021/07/16 09:15:11;;;;;;;12.97;8.13;;;;;;;;;;5093820;28;20605;-57
2021/07/16 09:17:42;;;;;;;15.53;7.93;;;;;;;;;;5094882;28;20460;-59
2021/07/16 09:20:11;;;;;;;15.43;7.33;;;;;;;;;;5103308;28;20449;-59
2021/07/16 09:23:11;;;;;;;13.53;8.87;;;;;;;;;;5114240;28;20448;-58
2021/07/16 09:25:39;;;;;;;11.50;7.50;;;;;;;;;;5011330;28;20692;-59
2021/07/16 09:28:31;;;;;;;13.40;7.17;;;;;;;;;;5032250;28;20578;-59
2021/07/16 09:31:10;;;;;;;16.53;9.40;;;;;;;;;;5048892;28;20471;-59
2021/07/16 09:33:50;;;;;;;13.90;7.63;;;;;;;;;;5111847;28;20485;-61
2021/07/16 09:39:29;;;;;;;16.53;11.10;;;;;;;;;;5129174;28;20512;-59
2021/07/16 09:42:09;;;;;;;16.43;9.83;;;;;;;;;;5133629;28;20450;-57
2021/07/16 09:44:42;;;;;;;20.87;13.00;;;;;;;;;;5132496;28;20518;-60
2021/07/16 09:47:13;;;;;;;19.33;14.77;;;;;;;;;;5127733;28;20469;-59
2021/07/16 09:49:47;;;;;;;20.03;15.93;;;;;;;;;;5128895;28;20648;-60
2021/07/16 09:52:22;;;;;;;26.20;16.17;;;;;;;;;;5115307;28;20419;-60
2021/07/16 09:55:14;;;;;;;24.97;18.30;;;;;;;;;;5131058;28;20451;-59
2021/07/16 09:57:42;;;;;;;26.47;16.40;;;;;;;;;;5111662;28;20483;-63
2021/07/16 10:00:16;;;;;;;21.97;18.13;;;;;;;;;;5121602;28;20513;-57
2021/07/16 10:02:45;;;;;;;23.77;20.10;;;;;;;;;;5130125;28;20509;-57
2021/07/16 10:05:16;;;;;;;24.87;19.73;;;;;;;;;;5132230;28;20489;-58
2021/07/16 10:07:44;;;;;;;29.53;20.27;;;;;;;;;;5124386;28;20462;-58
2021/07/16 10:10:31;;;;;;;24.00;19.20;;;;;;;;;;5115842;28;20681;-57
2021/07/16 10:12:59;;;;;;;28.73;21.70;;;;;;;;;;5130667;28;20454;-57
2021/07/16 10:15:27;;;;;;;29.53;20.77;;;;;;;;;;5131148;28;20585;-57
2021/07/16 10:17:56;;;;;;;24.93;20.57;;;;;;;;;;5119204;28;20493;-58
2021/07/16 10:20:25;;;;;;;25.60;20.57;;;;;;;;;;5113469;27;20467;-59
2021/07/16 10:22:54;;;;;;;29.40;20.47;;;;;;;;;;5144701;27;20463;-57
2021/07/16 10:25:23;;;;;;;23.37;18.77;;;;;;;;;;5132743;28;20439;-57
2021/07/16 10:27:51;;;;;;;26.37;18.57;;;;;;;;;;5124275;28;20495;-59
2021/07/16 10:30:27;;;;;;;23.83;18.23;;;;;;;;;;5123080;28;20531;-60
2021/07/16 10:33:17;;;;;;;23.60;20.40;;;;;;;;;;5131630;28;20468;-61
2021/07/16 10:35:46;;;;;;;27.77;20.57;;;;;;;;;;5113146;28;20558;-59
2021/07/16 10:38:29;;;;;;;25.13;20.50;;;;;;;;;;5115247;28;20462;-60
2021/07/16 10:40:56;;;;;;;25.30;21.27;;;;;;;;;;5132579;28;20442;-57
2021/07/16 10:43:40;;;;;;;29.83;23.53;;;;;;;;;;5130642;28;20434;-58
2021/07/16 10:49:12;;;;;;;29.20;24.30;;;;;;;;;;5122118;28;20488;-59
2021/07/16 10:52:06;;;;;;;33.67;25.40;;;;;;;;;;5134472;28;20430;-60
2021/07/16 10:54:46;;;;;;;33.10;22.63;;;;;;;;;;5127566;28;20527;-57
2021/07/16 10:57:15;;;;;;;28.13;23.90;;;;;;;;;;5114324;28;20764;-59
2021/07/16 10:59:48;;;;;;;39.10;25.47;;;;;;;;;;5133828;28;20451;-60
2021/07/16 11:02:34;;;;;;;30.80;24.43;;;;;;;;;;5126134;28;20450;-58
2021/07/16 11:05:01;;;;;;;25.40;20.73;;;;;;;;;;5113844;28;20482;-58
2021/07/16 11:07:37;;;;;;;24.53;18.23;;;;;;;;;;5116616;28;20445;-59
2021/07/16 11:10:32;;;;;;;26.97;20.53;;;;;;;;;;5125755;28;20507;-59
2021/07/16 11:13:19;;;;;;;31.30;20.73;;;;;;;;;;5128642;28;20530;-57
2021/07/16 11:16:25;;;;;;;34.13;19.70;;;;;;;;;;5125077;28;20600;-59
2021/07/16 11:18:56;;;;;;;28.30;19.10;;;;;;;;;;5125480;28;20447;-59
2021/07/16 11:21:55;;;;;;;33.50;20.87;;;;;;;;;;5113836;28;20463;-58
2021/07/16 11:24:25;;;;;;;29.40;20.50;;;;;;;;;;5062642;28;20495;-59
2021/07/16 11:26:53;;;;;;;26.30;20.10;;;;;;;;;;5116593;28;20537;-61
2021/07/16 11:29:22;;;;;;;25.83;21.20;;;;;;;;;;5133293;28;20470;-58
2021/07/16 11:32:08;;;;;;;30.87;22.00;;;;;;;;;;5133948;28;20499;-58
2021/07/16 11:34:56;;;;;;;23.90;21.50;;;;;;;;;;5117256;28;20454;-59
2021/07/16 11:37:29;;;;;;;25.43;21.93;;;;;;;;;;5122699;28;20525;-60
2021/07/16 11:40:03;;;;;;;28.20;24.40;;;;;;;;;;5134428;28;20451;-62
2021/07/16 11:43:01;;;;;;;31.10;24.27;;;;;;;;;;5130154;28;20458;-59
2021/07/16 11:45:35;;;;;;;27.70;23.43;;;;;;;;;;5114017;28;20484;-61
2021/07/16 11:48:14;;;;;;;31.90;22.70;;;;;;;;;;5112265;28;20440;-59
2021/07/16 11:51:00;;;;;;;23.03;19.13;;;;;;;;;;5131875;28;20487;-60
2021/07/16 11:53:29;;;;;;;23.23;18.90;;;;;;;;;;5126272;28;20517;-56
2021/07/16 11:55:58;;;;;;;21.30;18.60;;;;;;;;;;5123031;28;20468;-60
2021/07/16 11:58:26;;;;;;;33.13;20.87;;;;;;;;;;5124404;28;20790;-60
2021/07/16 12:00:56;;;;;;;27.77;16.80;;;;;;;;;;5122821;28;20477;-61
2021/07/16 12:03:31;;;;;;;18.60;13.93;;;;;;;;;;5131826;28;20443;-60
2021/07/16 12:05:59;;;;;;;24.90;15.40;;;;;;;;;;5098729;28;20495;-60
2021/07/16 12:08:27;;;;;;;22.73;14.17;;;;;;;;;;5083590;28;20451;-59
2021/07/16 12:11:05;;;;;;;20.60;15.47;;;;;;;;;;5091981;28;20467;-59
2021/07/16 12:13:35;;;;;;;15.93;12.53;;;;;;;;;;5087510;28;20493;-57
2021/07/16 12:16:04;;;;;;;19.70;12.77;;;;;;;;;;5078256;28;20506;-59
2021/07/16 12:18:42;;;;;;;20.53;11.80;;;;;;;;;;5091495;28;20452;-59
2021/07/16 12:21:11;;;;;;;18.13;11.27;;;;;;;;;;5087346;28;20461;-59
2021/07/16 12:23:41;;;;;;;18.07;11.77;;;;;;;;;;5078446;28;20461;-58
2021/07/16 12:26:14;;;;;;;14.87;11.17;;;;;;;;;;5086993;28;20453;-61
2021/07/16 12:31:38;;;;;;;25.17;12.00;;;;;;;;;;5093223;28;20687;-58
2021/07/16 12:34:21;;;;;;;19.13;12.77;;;;;;;;;;5101479;28;20645;-60
2021/07/16 12:36:55;;;;;;;17.27;9.43;;;;;;;;;;5097056;28;20494;-61
2021/07/16 12:39:40;;;;;;;20.07;11.13;;;;;;;;;;5067145;28;20457;-59
2021/07/16 12:42:18;;;;;;;17.30;10.70;;;;;;;;;;5077744;28;20450;-60
2021/07/16 12:45:08;;;;;;;16.10;8.30;;;;;;;;;;5094582;28;20463;-59
2021/07/16 12:47:46;;;;;;;13.77;7.10;;;;;;;;;;5097695;28;20502;-60
2021/07/16 12:53:01;;;;;;;17.13;8.53;;;;;;;;;;5098866;28;20528;-59
2021/07/16 12:55:41;;;;;;;22.63;8.60;;;;;;;;;;5114357;28;20504;-59
2021/07/16 12:58:11;;;;;;;16.60;9.13;;;;;;;;;;5082408;28;20519;-59
2021/07/16 13:00:39;;;;;;;21.37;11.60;;;;;;;;;;5099824;28;20460;-60
2021/07/16 13:03:20;;;;;;;28.20;16.70;;;;;;;;;;5098739;28;20478;-59
2021/07/16 13:05:54;;;;;;;18.13;11.93;;;;;;;;;;5111450;28;20440;-60
2021/07/16 13:08:32;;;;;;;18.50;12.80;;;;;;;;;;5101464;28;20457;-59
2021/07/16 13:11:31;;;;;;;23.40;12.37;;;;;;;;;;5097706;28;20449;-60
2021/07/16 13:14:22;;;;;;;21.50;14.73;;;;;;;;;;5096836;28;20464;-60
2021/07/16 13:17:23;;;;;;;17.30;15.00;;;;;;;;;;5111159;28;20925;-59
2021/07/16 13:19:54;;;;;;;21.70;14.57;;;;;;;;;;5049695;28;20509;-59
2021/07/16 13:22:22;;;;;;;19.63;12.70;;;;;;;;;;5092757;28;20452;-60
2021/07/16 13:24:53;;;;;;;21.20;11.57;;;;;;;;;;5091551;28;20462;-59
2021/07/16 13:27:22;;;;;;;22.73;11.50;;;;;;;;;;5093664;28;20452;-61
2021/07/16 13:29:52;;;;;;;24.20;9.67;;;;;;;;;;5113592;28;20454;-59
2021/07/16 13:32:36;;;;;;;20.37;11.60;;;;;;;;;;5111687;28;20449;-60
2021/07/16 13:35:04;;;;;;;15.03;8.80;;;;;;;;;;5111818;28;20479;-60
2021/07/16 13:37:34;;;;;;;15.77;9.20;;;;;;;;;;5107131;28;20485;-59
2021/07/16 13:40:04;;;;;;;21.30;7.60;;;;;;;;;;5112559;28;20482;-59
2021/07/16 13:42:32;;;;;;;15.30;8.40;;;;;;;;;;5114738;28;20468;-59
2021/07/16 13:45:02;;;;;;;17.67;8.60;;;;;;;;;;5106182;28;20448;-60
2021/07/16 13:47:29;;;;;;;13.43;8.50;;;;;;;;;;5111680;28;20512;-60
2021/07/16 13:49:56;;;;;;;18.17;7.67;;;;;;;;;;5107394;28;20491;-60
2021/07/16 13:52:41;;;;;;;13.87;8.03;;;;;;;;;;5105280;28;20435;-61
2021/07/16 13:55:12;;;;;;;15.83;8.03;;;;;;;;;;5127351;28;20467;-60
2021/07/16 13:57:42;;;;;;;19.77;9.83;;;;;;;;;;5133954;28;20486;-61
2021/07/16 14:00:25;;;;;;;20.47;10.03;;;;;;;;;;5135327;28;20457;-59
2021/07/16 14:02:52;;;;;;;18.17;9.70;;;;;;;;;;5119556;28;20478;-59
2021/07/16 14:05:20;;;;;;;16.03;9.90;;;;;;;;;;5133072;28;20459;-59
2021/07/16 14:07:50;;;;;;;18.00;9.57;;;;;;;;;;5116487;28;20444;-60
2021/07/16 14:10:17;;;;;;;21.43;11.17;;;;;;;;;;5116699;28;20499;-60
2021/07/16 14:12:45;;;;;;;19.43;11.50;;;;;;;;;;5116515;28;20455;-60
2021/07/16 14:15:32;;;;;;;29.63;15.63;;;;;;;;;;5111490;28;20464;-59
2021/07/16 14:17:59;;;;;;;24.60;13.27;;;;;;;;;;5094392;28;20484;-60
2021/07/16 14:20:27;;;;;;;21.33;14.23;;;;;;;;;;5094217;28;20456;-59
2021/07/16 14:22:59;;;;;;;22.30;13.90;;;;;;;;;;5113488;28;20510;-61
2021/07/16 14:25:30;;;;;;;24.73;12.23;;;;;;;;;;5095552;28;20463;-60
2021/07/16 14:28:01;;;;;;;15.80;11.10;;;;;;;;;;5098050;28;20440;-61
2021/07/16 14:30:29;;;;;;;26.73;12.80;;;;;;;;;;5112267;28;20443;-61
2021/07/16 14:33:01;;;;;;;18.50;12.07;;;;;;;;;;5118539;28;20467;-61
2021/07/16 14:35:49;;;;;;;24.27;13.00;;;;;;;;;;5100981;28;20453;-60
2021/07/16 14:38:16;;;;;;;29.20;14.63;;;;;;;;;;5104224;28;20498;-60
2021/07/16 14:40:44;;;;;;;26.77;11.77;;;;;;;;;;5098271;28;20789;-61
2021/07/16 14:43:11;;;;;;;24.17;12.83;;;;;;;;;;5095088;28;20491;-61
2021/07/16 14:45:39;;;;;;;27.50;13.20;;;;;;;;;;5103265;28;20464;-61
2021/07/16 14:48:08;;;;;;;25.10;9.53;;;;;;;;;;5092056;28;20445;-59
2021/07/16 14:50:35;;;;;;;19.23;9.40;;;;;;;;;;5091419;28;20448;-61
2021/07/16 14:53:15;;;;;;;22.00;10.60;;;;;;;;;;5093050;28;20525;-61
2021/07/16 14:55:54;;;;;;;28.30;12.07;;;;;;;;;;5094901;28;20477;-61
2021/07/16 14:58:21;;;;;;;19.37;13.00;;;;;;;;;;5102180;28;20509;-61
2021/07/16 15:00:52;;;;;;;20.23;11.83;;;;;;;;;;5099284;28;20452;-61
2021/07/16 15:03:21;;;;;;;34.97;14.80;;;;;;;;;;5092071;28;20447;-60
2021/07/16 15:05:48;;;;;;;20.83;12.13;;;;;;;;;;5104717;28;20487;-61
2021/07/16 15:08:17;;;;;;;27.57;12.10;;;;;;;;;;5094074;28;20483;-61
2021/07/16 15:10:45;;;;;;;24.53;14.70;;;;;;;;;;5109502;28;20474;-61
2021/07/16 15:13:13;;;;;;;23.53;14.00;;;;;;;;;;5100086;28;20811;-61
2021/07/16 15:16:05;;;;;;;26.07;13.87;;;;;;;;;;5092565;28;20529;-60
2021/07/16 15:18:35;;;;;;;21.90;11.80;;;;;;;;;;5100013;28;20968;-60
2021/07/16 15:21:18;;;;;;;21.03;12.70;;;;;;;;;;5105991;28;20447;-60